createdAt,value
2022-10-20T00:00:48.198Z,0.00
2022-10-20T00:02:48.291Z,0.00
2022-10-20T00:03:48.316Z,0.00
2022-10-20T00:04:48.381Z,0.00
2022-10-20T00:05:48.370Z,0.00
2022-10-20T00:06:48.396Z,0.00
2022-10-20T00:07:48.402Z,0.00
2022-10-20T00:08:48.552Z,0.00
2022-10-20T00:09:48.450Z,0.00
2022-10-20T00:10:48.462Z,0.00
2022-10-20T00:11:48.454Z,0.00
2022-10-20T00:12:48.461Z,0.00
2022-10-20T00:13:48.501Z,0.00
2022-10-20T00:14:48.521Z,0.00
2022-10-20T00:15:48.570Z,0.00
2022-10-20T00:16:48.604Z,0.00
2022-10-20T00:17:48.653Z,0.00
2022-10-20T00:18:48.641Z,0.00
2022-10-20T00:19:48.641Z,0.00
2022-10-20T00:20:48.696Z,0.00
2022-10-20T00:21:48.762Z,0.00
2022-10-20T00:22:48.783Z,0.00
2022-10-20T00:23:48.833Z,0.00
2022-10-20T00:24:48.828Z,0.00
2022-10-20T00:25:48.827Z,0.00
2022-10-20T00:26:48.839Z,0.00
2022-10-20T00:27:48.853Z,0.00
2022-10-20T00:28:48.855Z,0.00
2022-10-20T00:29:48.863Z,0.00
2022-10-20T00:30:48.866Z,0.00
2022-10-20T00:31:48.845Z,0.00
2022-10-20T00:32:48.842Z,0.00
2022-10-20T00:33:48.907Z,0.00
2022-10-20T00:34:48.906Z,0.00
2022-10-20T00:35:48.929Z,0.00
2022-10-20T00:36:51.307Z,0.00
2022-10-20T00:37:48.976Z,0.00
2022-10-20T00:38:48.996Z,0.00
2022-10-20T00:39:49.031Z,0.00
2022-10-20T00:40:49.006Z,0.00
2022-10-20T00:41:49.045Z,0.00
2022-10-20T00:42:49.050Z,0.00
2022-10-20T00:43:49.059Z,0.00
2022-10-20T00:44:49.078Z,0.00
2022-10-20T00:45:49.089Z,0.00
2022-10-20T00:46:49.118Z,0.00
2022-10-20T00:47:49.171Z,0.00
2022-10-20T00:48:49.172Z,0.00
2022-10-20T00:49:49.228Z,0.00
2022-10-20T00:50:49.309Z,0.00
2022-10-20T00:51:49.299Z,0.00
2022-10-20T00:52:49.312Z,0.00
2022-10-20T00:53:49.359Z,0.00
2022-10-20T00:54:49.400Z,0.00
2022-10-20T00:55:49.457Z,0.00
2022-10-20T00:56:49.485Z,0.00
2022-10-20T00:57:49.511Z,0.00
2022-10-20T00:58:49.510Z,0.00
2022-10-20T00:59:49.533Z,0.00
2022-10-20T01:00:49.521Z,0.00
2022-10-20T01:01:49.576Z,0.00
2022-10-20T01:02:49.561Z,0.00
2022-10-20T01:03:49.543Z,0.00
2022-10-20T01:04:49.591Z,0.00
2022-10-20T01:05:49.604Z,0.00
2022-10-20T01:06:49.632Z,0.00
2022-10-20T01:07:49.642Z,0.00
2022-10-20T01:08:49.691Z,0.00
2022-10-20T01:09:49.723Z,0.00
2022-10-20T01:10:49.713Z,0.00
2022-10-20T01:11:49.710Z,0.00
2022-10-20T01:12:49.703Z,0.00
2022-10-20T01:13:49.733Z,0.00
2022-10-20T01:14:49.795Z,0.00
2022-10-20T01:15:49.831Z,0.00
2022-10-20T01:16:49.898Z,0.00
2022-10-20T01:17:49.884Z,0.00
2022-10-20T01:18:49.954Z,0.00
2022-10-20T01:19:49.954Z,0.00
2022-10-20T01:20:50.026Z,0.00
2022-10-20T01:21:50.005Z,0.00
2022-10-20T01:22:50.047Z,0.00
2022-10-20T01:23:50.076Z,0.00
2022-10-20T01:24:50.077Z,0.00
2022-10-20T01:25:50.093Z,0.00
2022-10-20T01:26:50.089Z,0.00
2022-10-20T01:27:50.146Z,0.00
2022-10-20T01:28:50.139Z,0.00
2022-10-20T01:29:50.196Z,0.00
2022-10-20T01:30:50.267Z,0.00
2022-10-20T01:31:50.266Z,0.00
2022-10-20T01:32:50.298Z,0.00
2022-10-20T01:33:50.278Z,0.00
2022-10-20T01:34:52.901Z,0.00
2022-10-20T01:35:50.387Z,0.00
2022-10-20T01:36:50.407Z,0.00
2022-10-20T01:37:50.829Z,0.00
2022-10-20T01:38:50.429Z,0.00
2022-10-20T01:39:50.436Z,0.00
2022-10-20T01:40:50.537Z,0.00
2022-10-20T01:41:50.499Z,0.00
2022-10-20T01:42:50.540Z,0.00
2022-10-20T01:43:50.552Z,0.00
2022-10-20T01:44:50.579Z,0.00
2022-10-20T01:45:50.590Z,0.00
2022-10-20T01:46:50.612Z,0.00
2022-10-20T01:47:50.610Z,0.00
2022-10-20T01:48:50.660Z,0.00
2022-10-20T01:49:50.682Z,0.00
2022-10-20T01:50:52.410Z,0.00
2022-10-20T01:51:50.691Z,0.00
2022-10-20T01:52:50.711Z,0.00
2022-10-20T01:53:50.701Z,0.00
2022-10-20T01:54:50.732Z,0.00
2022-10-20T01:55:50.783Z,0.00
2022-10-20T01:56:50.802Z,0.00
2022-10-20T01:57:50.842Z,0.00
2022-10-20T01:58:50.863Z,0.00
2022-10-20T01:59:50.862Z,0.00
2022-10-20T02:00:50.927Z,0.00
2022-10-20T02:01:50.937Z,0.00
2022-10-20T02:02:50.914Z,0.00
2022-10-20T02:03:50.974Z,0.00
2022-10-20T02:04:50.983Z,0.00
2022-10-20T02:05:51.024Z,0.00
2022-10-20T02:06:51.114Z,0.00
2022-10-20T02:07:51.154Z,0.00
2022-10-20T02:08:51.194Z,0.00
2022-10-20T02:09:51.253Z,0.00
2022-10-20T02:10:51.255Z,0.00
2022-10-20T02:11:51.309Z,0.00
2022-10-20T02:12:51.363Z,0.00
2022-10-20T02:13:51.386Z,0.00
2022-10-20T02:14:51.404Z,0.00
2022-10-20T02:15:51.416Z,0.00
2022-10-20T02:16:51.430Z,0.00
2022-10-20T02:17:51.465Z,0.00
2022-10-20T02:18:51.524Z,0.00
2022-10-20T02:19:51.530Z,0.00
2022-10-20T02:20:51.537Z,0.00
2022-10-20T02:21:51.585Z,0.00
2022-10-20T02:22:51.607Z,0.00
2022-10-20T02:23:51.658Z,0.00
2022-10-20T02:24:51.703Z,0.00
2022-10-20T02:25:51.748Z,0.00
2022-10-20T02:26:51.838Z,0.00
2022-10-20T02:27:51.899Z,0.00
2022-10-20T02:28:51.877Z,0.00
2022-10-20T02:29:51.909Z,0.00
2022-10-20T02:30:51.958Z,0.00
2022-10-20T02:31:51.967Z,0.00
2022-10-20T02:32:52.017Z,0.00
2022-10-20T02:33:52.030Z,0.00
2022-10-20T02:34:52.034Z,0.00
2022-10-20T02:35:52.041Z,0.00
2022-10-20T02:36:52.121Z,0.00
2022-10-20T02:37:52.112Z,0.00
2022-10-20T02:38:52.150Z,0.00
2022-10-20T02:39:52.131Z,0.00
2022-10-20T02:40:52.220Z,0.00
2022-10-20T02:41:52.261Z,0.00
2022-10-20T02:42:52.302Z,0.00
2022-10-20T02:43:52.291Z,0.00
2022-10-20T02:44:52.363Z,0.00
2022-10-20T02:45:52.403Z,0.00
2022-10-20T02:46:52.453Z,0.00
2022-10-20T02:47:52.493Z,0.00
2022-10-20T02:48:52.553Z,0.00
2022-10-20T02:49:52.553Z,0.00
2022-10-20T02:50:52.574Z,0.00
2022-10-20T02:51:52.614Z,0.00
2022-10-20T02:52:52.625Z,0.00
2022-10-20T02:53:52.644Z,0.00
2022-10-20T02:54:52.652Z,0.00
2022-10-20T02:55:52.665Z,0.00
2022-10-20T02:56:52.685Z,0.00
2022-10-20T02:57:52.685Z,0.00
2022-10-20T02:58:52.715Z,0.00
2022-10-20T02:59:52.734Z,0.00
2022-10-20T03:00:52.757Z,0.00
2022-10-20T03:01:52.906Z,0.00
2022-10-20T03:02:52.817Z,0.00
2022-10-20T03:03:52.827Z,0.00
2022-10-20T03:04:52.874Z,0.00
2022-10-20T03:05:52.928Z,0.00
2022-10-20T03:06:52.937Z,0.00
2022-10-20T03:07:53.007Z,0.00
2022-10-20T03:08:53.116Z,0.00
2022-10-20T03:09:53.105Z,0.00
2022-10-20T03:10:53.131Z,0.00
2022-10-20T03:11:53.148Z,0.00
2022-10-20T03:12:53.166Z,0.00
2022-10-20T03:13:53.218Z,0.00
2022-10-20T03:14:53.249Z,0.00
2022-10-20T03:15:53.289Z,0.00
2022-10-20T03:16:53.372Z,0.00
2022-10-20T03:17:53.350Z,0.00
2022-10-20T03:18:53.411Z,0.00
2022-10-20T03:19:53.450Z,0.00
2022-10-20T03:20:53.470Z,0.00
2022-10-20T03:21:53.499Z,0.00
2022-10-20T03:22:53.490Z,0.00
2022-10-20T03:23:53.541Z,0.00
2022-10-20T03:24:53.550Z,0.00
2022-10-20T03:25:53.550Z,0.00
2022-10-20T03:26:53.611Z,0.00
2022-10-20T03:27:53.641Z,0.00
2022-10-20T03:28:53.642Z,0.00
2022-10-20T03:29:53.661Z,0.00
2022-10-20T03:30:53.713Z,0.00
2022-10-20T03:31:53.738Z,0.00
2022-10-20T03:32:53.740Z,0.00
2022-10-20T03:33:53.762Z,0.00
2022-10-20T03:34:53.753Z,0.00
2022-10-20T03:35:53.783Z,0.00
2022-10-20T03:36:53.802Z,0.00
2022-10-20T03:37:53.803Z,0.00
2022-10-20T03:38:53.870Z,0.00
2022-10-20T03:39:53.893Z,0.00
2022-10-20T03:40:53.976Z,0.00
2022-10-20T03:41:53.964Z,0.00
2022-10-20T03:42:54.015Z,0.00
2022-10-20T03:43:54.044Z,0.00
2022-10-20T03:44:54.075Z,0.00
2022-10-20T03:45:54.085Z,0.00
2022-10-20T03:46:54.089Z,0.00
2022-10-20T03:47:54.127Z,0.00
2022-10-20T03:48:54.146Z,0.00
2022-10-20T03:49:54.204Z,0.00
2022-10-20T03:50:54.258Z,0.00
2022-10-20T03:51:54.274Z,0.00
2022-10-20T03:52:54.336Z,0.00
2022-10-20T03:53:54.380Z,0.00
2022-10-20T03:54:54.459Z,0.00
2022-10-20T03:55:54.467Z,0.00
2022-10-20T03:56:54.530Z,0.00
2022-10-20T03:57:54.566Z,0.00
2022-10-20T03:58:54.594Z,0.00
2022-10-20T03:59:54.626Z,0.00
2022-10-20T04:00:54.651Z,0.00
2022-10-20T04:01:54.748Z,0.00
2022-10-20T04:02:54.769Z,0.00
2022-10-20T04:03:54.781Z,0.00
2022-10-20T04:04:54.819Z,0.00
2022-10-20T04:05:54.888Z,0.00
2022-10-20T04:06:54.889Z,0.00
2022-10-20T04:07:54.929Z,0.00
2022-10-20T04:08:55.064Z,0.00
2022-10-20T04:09:54.983Z,0.00
2022-10-20T04:10:54.982Z,0.00
2022-10-20T04:11:55.050Z,0.00
2022-10-20T04:12:55.131Z,0.00
2022-10-20T04:13:55.184Z,0.00
2022-10-20T04:14:55.152Z,0.00
2022-10-20T04:15:55.182Z,0.00
2022-10-20T04:16:55.192Z,0.00
2022-10-20T04:17:55.271Z,0.00
2022-10-20T04:18:55.266Z,0.00
2022-10-20T04:19:55.262Z,0.00
2022-10-20T04:20:55.342Z,0.00
2022-10-20T04:21:55.352Z,0.00
2022-10-20T04:22:55.394Z,0.00
2022-10-20T04:23:55.382Z,0.00
2022-10-20T04:24:55.413Z,0.00
2022-10-20T04:25:55.415Z,0.00
2022-10-20T04:26:55.423Z,0.00
2022-10-20T04:27:55.473Z,0.00
2022-10-20T04:28:55.454Z,0.00
2022-10-20T04:29:55.469Z,0.00
2022-10-20T04:30:55.465Z,0.00
2022-10-20T04:31:55.465Z,0.00
2022-10-20T04:32:55.465Z,0.00
2022-10-20T04:33:55.494Z,0.00
2022-10-20T04:34:55.485Z,0.00
2022-10-20T04:35:55.497Z,0.00
2022-10-20T04:36:55.487Z,0.00
2022-10-20T04:37:55.496Z,0.00
2022-10-20T04:38:55.517Z,0.00
2022-10-20T04:39:55.510Z,0.00
2022-10-20T04:40:56.505Z,0.00
2022-10-20T04:41:55.567Z,0.00
2022-10-20T04:42:55.567Z,0.00
2022-10-20T04:43:55.607Z,0.00
2022-10-20T04:44:55.629Z,0.00
2022-10-20T04:45:55.628Z,0.00
2022-10-20T04:46:55.622Z,0.00
2022-10-20T04:47:55.624Z,0.00
2022-10-20T04:48:55.629Z,0.00
2022-10-20T04:49:55.628Z,0.00
2022-10-20T04:50:55.630Z,0.00
2022-10-20T04:52:00.629Z,0.00
2022-10-20T04:52:55.678Z,0.00
2022-10-20T04:53:55.751Z,0.00
2022-10-20T04:54:55.729Z,0.00
2022-10-20T04:55:55.763Z,0.00
2022-10-20T04:56:55.810Z,0.00
2022-10-20T04:57:55.821Z,0.00
2022-10-20T04:58:55.822Z,0.00
2022-10-20T04:59:55.821Z,0.00
2022-10-20T05:00:55.831Z,0.00
2022-10-20T05:01:55.949Z,0.00
2022-10-20T05:02:55.901Z,0.00
2022-10-20T05:03:55.911Z,0.00
2022-10-20T05:04:56.011Z,0.00
2022-10-20T05:05:56.002Z,0.00
2022-10-20T05:06:56.012Z,0.00
2022-10-20T05:07:56.033Z,0.00
2022-10-20T05:08:56.087Z,0.00
2022-10-20T05:09:56.032Z,0.00
2022-10-20T05:10:56.073Z,0.00
2022-10-20T05:11:56.112Z,0.00
2022-10-20T05:12:56.153Z,0.00
2022-10-20T05:13:56.193Z,0.00
2022-10-20T05:14:56.213Z,0.00
2022-10-20T05:15:56.256Z,4.00
2022-10-20T05:16:56.253Z,4.00
2022-10-20T05:17:56.254Z,0.00
2022-10-20T05:18:56.291Z,0.00
2022-10-20T05:19:56.335Z,4.00
2022-10-20T05:21:08.330Z,4.00
2022-10-20T05:21:56.448Z,0.00
2022-10-20T05:22:56.467Z,4.00
2022-10-20T05:23:56.510Z,0.00
2022-10-20T05:25:00.849Z,4.00
2022-10-20T05:25:56.586Z,4.00
2022-10-20T05:26:56.596Z,0.00
2022-10-20T05:27:56.596Z,0.00
2022-10-20T05:28:56.645Z,4.00
2022-10-20T05:29:56.597Z,8.00
2022-10-20T05:30:59.214Z,4.00
2022-10-20T05:31:56.667Z,8.00
2022-10-20T05:32:56.657Z,8.00
2022-10-20T05:33:56.707Z,12.00
2022-10-20T05:34:56.748Z,8.00
2022-10-20T05:35:56.759Z,20.00
2022-10-20T05:36:56.847Z,16.00
2022-10-20T05:37:56.842Z,24.00
2022-10-20T05:38:56.906Z,32.00
2022-10-20T05:39:56.949Z,20.00
2022-10-20T05:40:56.947Z,52.00
2022-10-20T05:41:56.930Z,56.00
2022-10-20T05:42:56.939Z,60.00
2022-10-20T05:43:56.967Z,76.00
2022-10-20T05:44:56.962Z,84.00
2022-10-20T05:45:56.977Z,100.00
2022-10-20T05:46:56.987Z,132.00
2022-10-20T05:47:57.002Z,148.00
2022-10-20T05:48:57.029Z,148.00
2022-10-20T05:49:57.081Z,152.00
2022-10-20T05:50:57.115Z,192.00
2022-10-20T05:51:57.131Z,196.00
2022-10-20T05:52:57.172Z,224.00
2022-10-20T05:53:57.173Z,236.00
2022-10-20T05:54:57.182Z,248.00
2022-10-20T05:55:57.194Z,280.00
2022-10-20T05:56:57.230Z,280.00
2022-10-20T05:57:57.273Z,336.00
2022-10-20T05:58:57.252Z,340.00
2022-10-20T05:59:57.313Z,372.00
2022-10-20T06:00:57.293Z,444.00
2022-10-20T06:01:57.344Z,460.00
2022-10-20T06:02:57.304Z,556.00
2022-10-20T06:03:57.383Z,628.00
2022-10-20T06:04:57.336Z,652.00
2022-10-20T06:05:57.334Z,748.00
2022-10-20T06:06:57.364Z,892.00
2022-10-20T06:07:57.358Z,916.00
2022-10-20T06:08:57.371Z,1016.00
2022-10-20T06:09:57.335Z,1220.00
2022-10-20T06:10:57.366Z,1208.00
2022-10-20T06:11:57.498Z,1400.00
2022-10-20T06:12:57.486Z,1448.00
2022-10-20T06:13:57.456Z,1636.00
2022-10-20T06:14:57.496Z,1604.00
2022-10-20T06:15:57.546Z,1892.00
2022-10-20T06:16:57.567Z,2000.00
2022-10-20T06:17:57.576Z,2128.00
2022-10-20T06:18:57.657Z,2060.00
2022-10-20T06:19:57.678Z,2408.00
2022-10-20T06:20:57.686Z,2520.00
2022-10-20T06:21:59.283Z,2540.00
2022-10-20T06:22:57.769Z,2804.00
2022-10-20T06:23:57.791Z,2728.00
2022-10-20T06:24:57.818Z,2880.00
2022-10-20T06:25:57.789Z,3052.00
2022-10-20T06:26:57.858Z,3280.00
2022-10-20T06:27:57.878Z,3420.00
2022-10-20T06:29:03.536Z,3624.00
2022-10-20T06:29:57.955Z,3808.00
2022-10-20T06:30:57.900Z,3820.00
2022-10-20T06:31:57.912Z,4088.00
2022-10-20T06:32:57.970Z,4568.00
2022-10-20T06:33:58.671Z,5056.00
2022-10-20T06:34:57.980Z,5676.00
2022-10-20T06:35:58.003Z,7444.00
2022-10-20T06:36:58.020Z,9956.00
2022-10-20T06:37:58.032Z,12128.00
2022-10-20T06:38:58.082Z,15104.00
2022-10-20T06:39:58.062Z,16096.00
2022-10-20T06:40:58.072Z,15200.00
2022-10-20T06:41:58.112Z,13408.00
2022-10-20T06:42:58.165Z,12100.00
2022-10-20T06:43:58.173Z,11496.00
2022-10-20T06:44:58.203Z,10788.00
2022-10-20T06:45:58.213Z,11496.00
2022-10-20T06:46:58.246Z,11700.00
2022-10-20T06:47:58.274Z,10660.00
2022-10-20T06:48:59.102Z,8720.00
2022-10-20T06:49:58.374Z,8324.00
2022-10-20T06:50:58.405Z,8452.00
2022-10-20T06:51:58.445Z,8276.00
2022-10-20T06:52:58.415Z,8484.00
2022-10-20T06:53:58.495Z,8560.00
2022-10-20T06:54:58.494Z,7944.00
2022-10-20T06:55:58.536Z,7620.00
2022-10-20T06:56:58.585Z,7524.00
2022-10-20T06:57:58.619Z,8084.00
2022-10-20T06:58:58.628Z,8740.00
2022-10-20T06:59:58.666Z,9480.00
2022-10-20T07:00:58.738Z,9892.00
2022-10-20T07:01:58.807Z,11288.00
2022-10-20T07:02:58.737Z,12432.00
2022-10-20T07:03:58.749Z,14392.00
2022-10-20T07:04:58.768Z,15744.00
2022-10-20T07:05:58.788Z,17952.00
2022-10-20T07:06:58.831Z,23520.00
2022-10-20T07:07:58.864Z,22688.00
2022-10-20T07:08:59.000Z,19488.00
2022-10-20T07:09:58.929Z,18432.00
2022-10-20T07:10:58.930Z,16992.00
2022-10-20T07:11:58.975Z,17888.00
2022-10-20T07:12:58.972Z,18208.00
2022-10-20T07:13:58.969Z,17632.00
2022-10-20T07:14:59.030Z,17536.00
2022-10-20T07:15:59.041Z,15520.00
2022-10-20T07:16:59.143Z,13648.00
2022-10-20T07:17:59.118Z,14044.00
2022-10-20T07:18:59.130Z,15744.00
2022-10-20T07:19:59.131Z,17344.00
2022-10-20T07:20:59.124Z,20128.00
2022-10-20T07:21:59.172Z,20608.00
2022-10-20T07:22:59.194Z,25504.00
2022-10-20T07:23:59.242Z,25152.00
2022-10-20T07:24:59.303Z,27424.00
2022-10-20T07:25:59.325Z,27712.00
2022-10-20T07:26:59.334Z,27552.00
2022-10-20T07:27:59.334Z,26688.00
2022-10-20T07:28:59.363Z,23328.00
2022-10-20T07:29:59.444Z,18336.00
2022-10-20T07:30:59.398Z,24256.00
2022-10-20T07:32:01.360Z,25184.00
2022-10-20T07:32:59.396Z,26912.00
2022-10-20T07:34:06.972Z,33056.00
2022-10-20T07:34:59.468Z,34016.00
2022-10-20T07:35:59.538Z,32928.00
2022-10-20T07:36:59.496Z,34336.00
2022-10-20T07:37:59.510Z,36800.00
2022-10-20T07:38:59.582Z,34720.00
2022-10-20T07:39:59.618Z,41760.00
2022-10-20T07:41:00.815Z,44928.00
2022-10-20T07:41:59.647Z,44992.00
2022-10-20T07:42:59.670Z,45408.00
2022-10-20T07:43:59.678Z,47936.00
2022-10-20T07:44:59.709Z,45920.00
2022-10-20T07:45:59.740Z,42144.00
2022-10-20T07:46:59.730Z,31328.00
2022-10-20T07:47:59.722Z,26016.00
2022-10-20T07:49:23.926Z,21376.00
2022-10-20T07:49:59.841Z,18240.00
2022-10-20T07:50:59.869Z,15392.00
2022-10-20T07:51:59.882Z,14288.00
2022-10-20T07:52:59.883Z,13440.00
2022-10-20T07:54:00.698Z,12612.00
2022-10-20T07:55:07.515Z,12292.00
2022-10-20T07:55:59.934Z,12160.00
2022-10-20T07:56:59.946Z,12236.00
2022-10-20T07:57:59.994Z,12272.00
2022-10-20T07:59:00.050Z,12264.00
2022-10-20T08:00:00.074Z,12440.00
2022-10-20T08:01:00.097Z,12540.00
2022-10-20T08:02:00.548Z,12556.00
2022-10-20T08:03:00.121Z,12376.00
2022-10-20T08:04:00.107Z,12940.00
2022-10-20T08:05:00.129Z,12896.00
2022-10-20T08:06:00.180Z,12428.00
2022-10-20T08:07:00.221Z,12600.00
2022-10-20T08:08:00.278Z,12520.00
2022-10-20T08:09:00.391Z,12328.00
2022-10-20T08:10:00.309Z,12392.00
2022-10-20T08:11:00.340Z,12608.00
2022-10-20T08:12:00.391Z,13256.00
2022-10-20T08:13:00.442Z,13932.00
2022-10-20T08:14:00.486Z,14260.00
2022-10-20T08:15:00.538Z,13488.00
2022-10-20T08:16:01.231Z,12676.00
2022-10-20T08:17:02.296Z,13276.00
2022-10-20T08:18:00.600Z,14216.00
2022-10-20T08:19:01.534Z,13428.00
2022-10-20T08:20:10.321Z,11760.00
2022-10-20T08:21:00.789Z,11264.00
2022-10-20T08:22:00.822Z,11136.00
2022-10-20T08:23:00.832Z,11076.00
2022-10-20T08:24:00.919Z,10924.00
2022-10-20T08:25:00.963Z,10724.00
2022-10-20T08:26:00.993Z,10800.00
2022-10-20T08:27:01.062Z,10256.00
2022-10-20T08:28:01.126Z,10124.00
2022-10-20T08:29:01.196Z,9864.00
2022-10-20T08:30:22.323Z,10096.00
2022-10-20T08:31:01.173Z,9760.00
2022-10-20T08:32:01.156Z,9504.00
2022-10-20T08:33:01.217Z,9420.00
2022-10-20T08:34:01.262Z,9564.00
2022-10-20T08:35:01.305Z,9660.00
2022-10-20T08:36:01.328Z,9604.00
2022-10-20T08:37:01.375Z,9708.00
2022-10-20T08:38:01.458Z,10024.00
2022-10-20T08:39:05.096Z,9796.00
2022-10-20T08:40:01.427Z,10040.00
2022-10-20T08:41:01.478Z,10220.00
2022-10-20T08:42:09.598Z,10076.00
2022-10-20T08:43:01.577Z,9928.00
2022-10-20T08:44:01.629Z,10008.00
2022-10-20T08:45:01.600Z,10060.00
2022-10-20T08:46:01.609Z,9784.00
2022-10-20T08:47:01.639Z,9860.00
2022-10-20T08:48:01.708Z,9864.00
2022-10-20T08:49:01.701Z,10080.00
2022-10-20T08:50:01.772Z,10044.00
2022-10-20T08:51:01.771Z,10040.00
2022-10-20T08:52:01.802Z,10096.00
2022-10-20T08:53:01.851Z,10312.00
2022-10-20T08:54:01.912Z,10368.00
2022-10-20T08:55:01.971Z,10360.00
2022-10-20T08:56:02.023Z,10180.00
2022-10-20T08:57:02.062Z,10544.00
2022-10-20T08:58:02.133Z,10796.00
2022-10-20T08:59:02.133Z,11384.00
2022-10-20T09:00:05.681Z,11372.00
2022-10-20T09:01:02.193Z,11044.00
2022-10-20T09:02:02.321Z,10948.00
2022-10-20T09:03:02.277Z,11544.00
2022-10-20T09:04:02.274Z,12208.00
2022-10-20T09:05:02.319Z,13020.00
2022-10-20T09:06:02.344Z,13852.00
2022-10-20T09:07:02.353Z,15484.00
2022-10-20T09:08:02.404Z,16320.00
2022-10-20T09:09:02.528Z,17600.00
2022-10-20T09:10:02.407Z,19392.00
2022-10-20T09:11:02.468Z,18880.00
2022-10-20T09:12:02.460Z,22144.00
2022-10-20T09:13:02.516Z,21216.00
2022-10-20T09:14:02.509Z,20736.00
2022-10-20T09:15:02.506Z,19904.00
2022-10-20T09:16:02.557Z,19296.00
2022-10-20T09:17:02.587Z,19584.00
2022-10-20T09:18:02.618Z,16320.00
2022-10-20T09:19:02.673Z,16768.00
2022-10-20T09:20:02.718Z,20608.00
2022-10-20T09:21:02.789Z,24736.00
2022-10-20T09:22:02.839Z,24704.00
2022-10-20T09:23:07.843Z,24320.00
2022-10-20T09:24:02.890Z,24096.00
2022-10-20T09:25:02.941Z,22496.00
2022-10-20T09:26:02.921Z,20096.00
2022-10-20T09:27:02.960Z,20352.00
2022-10-20T09:28:03.020Z,20160.00
2022-10-20T09:29:12.885Z,20256.00
2022-10-20T09:30:03.073Z,20672.00
2022-10-20T09:31:03.092Z,20000.00
2022-10-20T09:32:18.061Z,22048.00
2022-10-20T09:33:03.248Z,21920.00
2022-10-20T09:34:03.132Z,21344.00
2022-10-20T09:35:03.162Z,20288.00
2022-10-20T09:36:03.175Z,21216.00
2022-10-20T09:37:03.264Z,20576.00
2022-10-20T09:38:03.265Z,22592.00
2022-10-20T09:39:03.305Z,20256.00
2022-10-20T09:40:03.355Z,16544.00
2022-10-20T09:41:03.417Z,15680.00
2022-10-20T09:43:03.489Z,15744.00
2022-10-20T09:44:03.475Z,14872.00
2022-10-20T09:45:03.487Z,14976.00
2022-10-20T09:46:03.548Z,14904.00
2022-10-20T09:47:03.573Z,15060.00
2022-10-20T09:48:03.632Z,16160.00
2022-10-20T09:49:03.679Z,20512.00
2022-10-20T09:50:03.652Z,15796.00
2022-10-20T09:51:03.752Z,16672.00
2022-10-20T09:52:03.754Z,18112.00
2022-10-20T09:53:03.791Z,20128.00
2022-10-20T09:54:03.855Z,19040.00
2022-10-20T09:55:03.831Z,21824.00
2022-10-20T09:56:03.931Z,23296.00
2022-10-20T09:57:03.953Z,22816.00
2022-10-20T09:58:04.033Z,19488.00
2022-10-20T09:59:04.035Z,20096.00
2022-10-20T10:00:18.853Z,20864.00
2022-10-20T10:01:04.153Z,18784.00
2022-10-20T10:02:04.154Z,19808.00
2022-10-20T10:03:04.215Z,17856.00
2022-10-20T10:04:07.846Z,18432.00
2022-10-20T10:05:04.284Z,18304.00
2022-10-20T10:06:04.345Z,18112.00
2022-10-20T10:07:04.375Z,17952.00
2022-10-20T10:08:04.406Z,17568.00
2022-10-20T10:09:04.572Z,18240.00
2022-10-20T10:10:08.107Z,15980.00
2022-10-20T10:11:04.548Z,16256.00
2022-10-20T10:12:04.588Z,15156.00
2022-10-20T10:13:04.568Z,15084.00
2022-10-20T10:14:04.619Z,14136.00
2022-10-20T10:15:04.645Z,18176.00
2022-10-20T10:16:04.678Z,18304.00
2022-10-20T10:17:04.719Z,16960.00
2022-10-20T10:18:04.770Z,17824.00
2022-10-20T10:19:04.947Z,19488.00
2022-10-20T10:20:04.878Z,19168.00
2022-10-20T10:21:04.884Z,18464.00
2022-10-20T10:22:05.010Z,20192.00
2022-10-20T10:23:04.971Z,19968.00
2022-10-20T10:24:05.002Z,19648.00
2022-10-20T10:25:05.012Z,19104.00
2022-10-20T10:26:05.019Z,20544.00
2022-10-20T10:27:05.053Z,20992.00
2022-10-20T10:28:05.123Z,23296.00
2022-10-20T10:29:05.148Z,21728.00
2022-10-20T10:30:05.138Z,23488.00
2022-10-20T10:31:05.121Z,21504.00
2022-10-20T10:32:05.173Z,22784.00
2022-10-20T10:33:05.197Z,20288.00
2022-10-20T10:34:05.234Z,22624.00
2022-10-20T10:35:05.265Z,20768.00
2022-10-20T10:36:05.256Z,20832.00
2022-10-20T10:37:05.308Z,18816.00
2022-10-20T10:38:05.335Z,19264.00
2022-10-20T10:39:05.404Z,17920.00
2022-10-20T10:40:05.387Z,15348.00
2022-10-20T10:41:05.387Z,14772.00
2022-10-20T10:42:05.460Z,14160.00
2022-10-20T10:43:05.429Z,13828.00
2022-10-20T10:44:05.469Z,13956.00
2022-10-20T10:45:05.530Z,14772.00
2022-10-20T10:46:05.580Z,16544.00
2022-10-20T10:47:05.600Z,16380.00
2022-10-20T10:48:05.674Z,19488.00
2022-10-20T10:49:05.696Z,19360.00
2022-10-20T10:50:05.735Z,19264.00
2022-10-20T10:51:05.763Z,20416.00
2022-10-20T10:52:05.823Z,18368.00
2022-10-20T10:53:05.823Z,19584.00
2022-10-20T10:54:10.794Z,19296.00
2022-10-20T10:55:05.863Z,20064.00
2022-10-20T10:56:05.929Z,19744.00
2022-10-20T10:57:07.968Z,19104.00
2022-10-20T10:58:05.943Z,19136.00
2022-10-20T10:59:05.947Z,19840.00
2022-10-20T11:00:05.994Z,19232.00
2022-10-20T11:01:06.027Z,17632.00
2022-10-20T11:02:06.006Z,17248.00
2022-10-20T11:03:06.057Z,17408.00
2022-10-20T11:04:06.096Z,17024.00
2022-10-20T11:05:06.384Z,15332.00
2022-10-20T11:06:07.095Z,16180.00
2022-10-20T11:07:06.177Z,16992.00
2022-10-20T11:08:06.217Z,15104.00
2022-10-20T11:09:06.330Z,15368.00
2022-10-20T11:10:07.218Z,13196.00
2022-10-20T11:11:06.262Z,13084.00
2022-10-20T11:12:06.269Z,12936.00
2022-10-20T11:13:06.319Z,12468.00
2022-10-20T11:14:06.414Z,12532.00
2022-10-20T11:15:06.566Z,13092.00
2022-10-20T11:16:06.519Z,12592.00
2022-10-20T11:17:06.394Z,13116.00
2022-10-20T11:18:13.112Z,13088.00
2022-10-20T11:19:06.402Z,11864.00
2022-10-20T11:20:06.654Z,12332.00
2022-10-20T11:21:06.479Z,11536.00
2022-10-20T11:22:09.408Z,12656.00
2022-10-20T11:23:06.494Z,11960.00
2022-10-20T11:24:06.550Z,11128.00
2022-10-20T11:25:07.494Z,11272.00
2022-10-20T11:26:06.580Z,11020.00
2022-10-20T11:27:06.612Z,10628.00
2022-10-20T11:28:06.585Z,10288.00
2022-10-20T11:29:06.565Z,10020.00
2022-10-20T11:30:06.608Z,9720.00
2022-10-20T11:31:06.709Z,9392.00
2022-10-20T11:32:06.728Z,8936.00
2022-10-20T11:33:07.736Z,9060.00
2022-10-20T11:34:07.467Z,8848.00
2022-10-20T11:35:06.850Z,8784.00
2022-10-20T11:36:09.372Z,8724.00
2022-10-20T11:37:06.888Z,8568.00
2022-10-20T11:38:06.869Z,8868.00
2022-10-20T11:39:06.879Z,8892.00
2022-10-20T11:40:08.671Z,8800.00
2022-10-20T11:41:06.882Z,8904.00
2022-10-20T11:42:06.931Z,9060.00
2022-10-20T11:43:10.166Z,8928.00
2022-10-20T11:44:06.970Z,9068.00
2022-10-20T11:45:07.010Z,9132.00
2022-10-20T11:46:07.042Z,8920.00
2022-10-20T11:47:07.133Z,9360.00
2022-10-20T11:48:07.072Z,9172.00
2022-10-20T11:49:07.963Z,9464.00
2022-10-20T11:50:07.123Z,9316.00
2022-10-20T11:51:07.188Z,9576.00
2022-10-20T11:52:07.245Z,9648.00
2022-10-20T11:53:07.263Z,9556.00
2022-10-20T11:54:07.264Z,9892.00
2022-10-20T11:55:07.324Z,9748.00
2022-10-20T11:56:07.499Z,9888.00
2022-10-20T11:57:07.407Z,9700.00
2022-10-20T11:58:07.444Z,9688.00
2022-10-20T11:59:07.467Z,9720.00
2022-10-20T12:00:07.529Z,9716.00
2022-10-20T12:01:07.476Z,9400.00
2022-10-20T12:02:09.242Z,9528.00
2022-10-20T12:03:07.547Z,9124.00
2022-10-20T12:04:07.549Z,9372.00
2022-10-20T12:05:07.548Z,9316.00
2022-10-20T12:06:09.955Z,9076.00
2022-10-20T12:07:07.568Z,9856.00
2022-10-20T12:08:28.146Z,9764.00
2022-10-20T12:09:07.689Z,9672.00
2022-10-20T12:10:07.609Z,9752.00
2022-10-20T12:11:07.611Z,10368.00
2022-10-20T12:12:07.621Z,11192.00
2022-10-20T12:13:07.681Z,11104.00
2022-10-20T12:14:07.691Z,11420.00
2022-10-20T12:15:07.694Z,11376.00
2022-10-20T12:16:08.726Z,10960.00
2022-10-20T12:17:07.725Z,10580.00
2022-10-20T12:18:07.733Z,10968.00
2022-10-20T12:19:09.418Z,10588.00
2022-10-20T12:20:08.064Z,10560.00
2022-10-20T12:21:07.813Z,10332.00
2022-10-20T12:22:07.856Z,10112.00
2022-10-20T12:23:07.924Z,10208.00
2022-10-20T12:24:08.125Z,9840.00
2022-10-20T12:25:08.006Z,9680.00
2022-10-20T12:26:08.129Z,9332.00
2022-10-20T12:27:08.053Z,9248.00
2022-10-20T12:28:08.095Z,8900.00
2022-10-20T12:29:08.147Z,8396.00
2022-10-20T12:30:08.208Z,8508.00
2022-10-20T12:31:08.237Z,7960.00
2022-10-20T12:32:08.292Z,7600.00